sensor_id;sensor_type;location;lat;lon;timestamp;pressure;altitude;pressure_sealevel;temperature;humidity
67517;BME280;68821;59.134;37.894;2023-05-12T00:00:49;100586.66;;;15.64;33.66
67517;BME280;68821;59.134;37.894;2023-05-12T00:03:15;100593.56;;;15.63;33.90
67517;BME280;68821;59.134;37.894;2023-05-12T00:05:41;100600.50;;;15.63;34.12
67517;BME280;68821;59.134;37.894;2023-05-12T00:08:08;100600.47;;;15.58;33.81
67517;BME280;68821;59.134;37.894;2023-05-12T00:10:34;100586.66;;;15.50;33.93
67517;BME280;68821;59.134;37.894;2023-05-12T00:13:01;100603.06;;;15.54;34.27
67517;BME280;68821;59.134;37.894;2023-05-12T00:15:27;100605.66;;;15.47;33.54
67517;BME280;68821;59.134;37.894;2023-05-12T00:17:53;100602.19;;;15.44;34.15
67517;BME280;68821;59.134;37.894;2023-05-12T00:20:19;100587.53;;;15.37;34.10
67517;BME280;68821;59.134;37.894;2023-05-12T00:22:46;100603.94;;;15.33;34.40
67517;BME280;68821;59.134;37.894;2023-05-12T00:25:12;100600.47;;;15.29;34.28
67517;BME280;68821;59.134;37.894;2023-05-12T00:27:37;100600.47;;;15.26;34.66
67517;BME280;68821;59.134;37.894;2023-05-12T00:30:04;100603.03;;;15.21;34.75
67517;BME280;68821;59.134;37.894;2023-05-12T00:32:31;100598.75;;;15.16;34.77
67517;BME280;68821;59.134;37.894;2023-05-12T00:34:57;100598.72;;;15.13;35.03
67517;BME280;68821;59.134;37.894;2023-05-12T00:37:24;100597.84;;;15.06;34.77
67517;BME280;68821;59.134;37.894;2023-05-12T00:39:50;100592.63;;;14.97;35.51
67517;BME280;68821;59.134;37.894;2023-05-12T00:42:16;100603.84;;;14.94;35.59
67517;BME280;68821;59.134;37.894;2023-05-12T00:44:42;100596.94;;;14.85;35.60
67517;BME280;68821;59.134;37.894;2023-05-12T00:47:08;100596.06;;;14.82;35.56
67517;BME280;68821;59.134;37.894;2023-05-12T00:49:34;100593.41;;;14.68;36.03
67517;BME280;68821;59.134;37.894;2023-05-12T00:52:01;100605.50;;;14.67;35.75
67517;BME280;68821;59.134;37.894;2023-05-12T00:54:27;100602.03;;;14.64;36.51
67517;BME280;68821;59.134;37.894;2023-05-12T00:56:55;100608.06;;;14.60;36.64
67517;BME280;68821;59.134;37.894;2023-05-12T00:59:22;100602.03;;;14.56;36.47
67517;BME280;68821;59.134;37.894;2023-05-12T01:01:48;100602.03;;;14.56;36.28
67517;BME280;68821;59.134;37.894;2023-05-12T01:04:14;100605.41;;;14.54;36.32
67517;BME280;68821;59.134;37.894;2023-05-12T01:06:57;100604.53;;;14.52;36.84
67517;BME280;68821;59.134;37.894;2023-05-12T01:09:24;100594.19;;;14.44;37.07
67517;BME280;68821;59.134;37.894;2023-05-12T01:11:50;100607.09;;;14.47;37.02
67517;BME280;68821;59.134;37.894;2023-05-12T01:14:16;100612.25;;;14.45;36.80
67517;BME280;68821;59.134;37.894;2023-05-12T01:16:49;100604.50;;;14.42;36.70
67517;BME280;68821;59.134;37.894;2023-05-12T01:19:40;100607.94;;;14.40;37.14
67517;BME280;68821;59.134;37.894;2023-05-12T01:22:09;100610.53;;;14.41;36.59
67517;BME280;68821;59.134;37.894;2023-05-12T01:27:16;100607.09;;;14.42;36.21
67517;BME280;68821;59.134;37.894;2023-05-12T01:29:44;100607.06;;;14.41;36.22
67517;BME280;68821;59.134;37.894;2023-05-12T01:32:12;100606.22;;;14.43;36.51
67517;BME280;68821;59.134;37.894;2023-05-12T01:34:38;100604.50;;;14.42;36.56
67517;BME280;68821;59.134;37.894;2023-05-12T01:37:03;100604.50;;;14.42;36.90
67517;BME280;68821;59.134;37.894;2023-05-12T01:39:29;100601.91;;;14.41;37.29
67517;BME280;68821;59.134;37.894;2023-05-12T01:41:55;100608.81;;;14.40;37.39
67517;BME280;68821;59.134;37.894;2023-05-12T01:44:22;100599.31;;;14.38;37.58
67517;BME280;68821;59.134;37.894;2023-05-12T01:46:48;100592.38;;;14.31;37.28
67517;BME280;68821;59.134;37.894;2023-05-12T01:49:14;100599.28;;;14.32;37.34
67517;BME280;68821;59.134;37.894;2023-05-12T01:51:40;100609.59;;;14.28;37.54
67517;BME280;68821;59.134;37.894;2023-05-12T01:54:10;100604.44;;;14.25;37.67
67517;BME280;68821;59.134;37.894;2023-05-12T01:56:36;100605.25;;;14.23;37.38
67517;BME280;68821;59.134;37.894;2023-05-12T01:59:02;100607.84;;;14.20;37.91
67517;BME280;68821;59.134;37.894;2023-05-12T02:01:28;100609.53;;;14.18;37.75
67517;BME280;68821;59.134;37.894;2023-05-12T02:03:57;100607.81;;;14.14;37.64
67517;BME280;68821;59.134;37.894;2023-05-12T02:06:24;100610.38;;;14.12;37.34
67517;BME280;68821;59.134;37.894;2023-05-12T02:08:50;100604.34;;;14.13;37.69
67517;BME280;68821;59.134;37.894;2023-05-12T02:11:16;100608.66;;;14.11;37.80
67517;BME280;68821;59.134;37.894;2023-05-12T02:13:42;100612.94;;;14.11;38.08
67517;BME280;68821;59.134;37.894;2023-05-12T02:16:11;100609.50;;;14.12;37.88
67517;BME280;68821;59.134;37.894;2023-05-12T02:18:37;100613.00;;;14.15;38.24
67517;BME280;68821;59.134;37.894;2023-05-12T02:21:04;100607.81;;;14.18;38.27
67517;BME280;68821;59.134;37.894;2023-05-12T02:23:30;100613.00;;;14.20;38.50
67517;BME280;68821;59.134;37.894;2023-05-12T02:25:56;100614.75;;;14.24;38.56
67517;BME280;68821;59.134;37.894;2023-05-12T02:28:22;100621.69;;;14.28;38.23
67517;BME280;68821;59.134;37.894;2023-05-12T02:30:49;100611.34;;;14.29;38.38
67517;BME280;68821;59.134;37.894;2023-05-12T02:33:20;100611.38;;;14.37;37.99
67517;BME280;68821;59.134;37.894;2023-05-12T02:35:48;100600.19;;;14.41;37.44
67517;BME280;68821;59.134;37.894;2023-05-12T02:38:13;100603.69;;;14.48;37.91
67517;BME280;68821;59.134;37.894;2023-05-12T02:40:39;100614.91;;;14.53;37.51
67517;BME280;68821;59.134;37.894;2023-05-12T02:43:05;100614.94;;;14.58;37.53
67517;BME280;68821;59.134;37.894;2023-05-12T02:45:31;100612.38;;;14.61;37.52
67517;BME280;68821;59.134;37.894;2023-05-12T02:47:58;100608.97;;;14.66;37.26
67517;BME280;68821;59.134;37.894;2023-05-12T02:50:24;100606.38;;;14.71;37.21
67517;BME280;68821;59.134;37.894;2023-05-12T02:52:50;100611.59;;;14.77;36.93
67517;BME280;68821;59.134;37.894;2023-05-12T02:55:16;100615.06;;;14.87;36.66
67517;BME280;68821;59.134;37.894;2023-05-12T02:57:42;100614.22;;;14.94;37.23
67517;BME280;68821;59.134;37.894;2023-05-12T03:00:09;100620.25;;;15.01;36.42
67517;BME280;68821;59.134;37.894;2023-05-12T03:02:36;100611.63;;;15.05;36.54
67517;BME280;68821;59.134;37.894;2023-05-12T03:05:03;100619.44;;;15.13;36.50
67517;BME280;68821;59.134;37.894;2023-05-12T03:07:30;100621.16;;;15.12;36.26
67517;BME280;68821;59.134;37.894;2023-05-12T03:09:59;100620.28;;;15.08;36.84
67517;BME280;68821;59.134;37.894;2023-05-12T03:12:26;100626.31;;;15.09;36.53
67517;BME280;68821;59.134;37.894;2023-05-12T03:14:54;100626.31;;;15.04;36.53
67517;BME280;68821;59.134;37.894;2023-05-12T03:17:20;100628.03;;;15.02;37.06
67517;BME280;68821;59.134;37.894;2023-05-12T03:19:47;100623.72;;;15.00;37.25
67517;BME280;68821;59.134;37.894;2023-05-12T03:22:13;100622.84;;;14.96;37.55
67517;BME280;68821;59.134;37.894;2023-05-12T03:24:39;100624.56;;;14.93;37.14
67517;BME280;68821;59.134;37.894;2023-05-12T03:27:05;100625.41;;;14.90;37.60
67517;BME280;68821;59.134;37.894;2023-05-12T03:29:32;100616.78;;;14.85;37.31
67517;BME280;68821;59.134;37.894;2023-05-12T03:31:58;100615.03;;;14.84;37.55
67517;BME280;68821;59.134;37.894;2023-05-12T03:34:24;100618.47;;;14.80;37.66
67517;BME280;68821;59.134;37.894;2023-05-12T03:36:50;100617.63;;;14.81;37.80
67517;BME280;68821;59.134;37.894;2023-05-12T03:39:17;100609.00;;;14.80;37.40
67517;BME280;68821;59.134;37.894;2023-05-12T03:41:43;100608.16;;;14.83;37.65
67517;BME280;68821;59.134;37.894;2023-05-12T03:44:09;100609.88;;;14.84;37.34
67517;BME280;68821;59.134;37.894;2023-05-12T03:46:35;100610.75;;;14.87;37.33
67517;BME280;68821;59.134;37.894;2023-05-12T03:49:02;100607.31;;;14.92;37.58
67517;BME280;68821;59.134;37.894;2023-05-12T03:51:28;100608.19;;;14.98;37.50
67517;BME280;68821;59.134;37.894;2023-05-12T03:53:55;100609.06;;;15.06;37.25
67517;BME280;68821;59.134;37.894;2023-05-12T03:56:21;100605.63;;;15.14;37.37
67517;BME280;68821;59.134;37.894;2023-05-12T03:58:48;100602.19;;;15.21;37.13
67517;BME280;68821;59.134;37.894;2023-05-12T04:01:14;100600.47;;;15.27;37.05
67517;BME280;68821;59.134;37.894;2023-05-12T04:03:40;100602.22;;;15.30;37.16
67517;BME280;68821;59.134;37.894;2023-05-12T04:06:07;100598.75;;;15.34;37.38
67517;BME280;68821;59.134;37.894;2023-05-12T04:08:33;100595.31;;;15.38;37.50
67517;BME280;68821;59.134;37.894;2023-05-12T04:11:00;100603.94;;;15.42;37.38
67517;BME280;68821;59.134;37.894;2023-05-12T04:13:28;100597.91;;;15.44;37.41
67517;BME280;68821;59.134;37.894;2023-05-12T04:15:55;100598.75;;;15.43;37.24
67517;BME280;68821;59.134;37.894;2023-05-12T04:18:22;100603.06;;;15.43;37.07
67517;BME280;68821;59.134;37.894;2023-05-12T04:20:48;100600.47;;;15.47;37.30
67517;BME280;68821;59.134;37.894;2023-05-12T04:23:14;100595.28;;;15.52;37.41
67517;BME280;68821;59.134;37.894;2023-05-12T04:25:41;100586.66;;;15.58;37.32
67517;BME280;68821;59.134;37.894;2023-05-12T04:28:08;100599.63;;;15.65;37.06
67517;BME280;68821;59.134;37.894;2023-05-12T04:30:38;100592.72;;;15.72;37.02
67517;BME280;68821;59.134;37.894;2023-05-12T04:33:04;100598.78;;;15.80;37.19
67517;BME280;68821;59.134;37.894;2023-05-12T04:35:31;100591.00;;;15.83;37.44
67517;BME280;68821;59.134;37.894;2023-05-12T04:37:57;100604.81;;;15.87;37.82
67517;BME280;68821;59.134;37.894;2023-05-12T04:40:26;100596.16;;;15.93;37.91
67517;BME280;68821;59.134;37.894;2023-05-12T04:42:53;100597.88;;;16.01;37.60
67517;BME280;68821;59.134;37.894;2023-05-12T04:45:19;100597.84;;;16.07;38.00
67517;BME280;68821;59.134;37.894;2023-05-12T04:47:45;100597.84;;;16.15;37.73
67517;BME280;68821;59.134;37.894;2023-05-12T04:50:12;100590.94;;;16.19;38.10
67517;BME280;68821;59.134;37.894;2023-05-12T04:52:38;100584.00;;;16.19;38.07
67517;BME280;68821;59.134;37.894;2023-05-12T04:55:05;100596.97;;;16.28;38.03
67517;BME280;68821;59.134;37.894;2023-05-12T04:57:32;100586.56;;;16.33;38.09
67517;BME280;68821;59.134;37.894;2023-05-12T04:59:58;100583.06;;;16.40;38.02
67517;BME280;68821;59.134;37.894;2023-05-12T05:02:25;100585.63;;;16.48;37.88
67517;BME280;68821;59.134;37.894;2023-05-12T05:04:53;100587.34;;;16.55;37.76
67517;BME280;68821;59.134;37.894;2023-05-12T05:07:19;100586.47;;;16.59;37.88
67517;BME280;68821;59.134;37.894;2023-05-12T05:09:45;100586.44;;;16.62;37.48
67517;BME280;68821;59.134;37.894;2023-05-12T05:12:11;100583.84;;;16.64;37.48
67517;BME280;68821;59.134;37.894;2023-05-12T05:14:38;100588.19;;;16.63;37.71
67517;BME280;68821;59.134;37.894;2023-05-12T05:17:04;100589.03;;;16.64;37.73
67517;BME280;68821;59.134;37.894;2023-05-12T05:19:32;100589.00;;;16.67;37.62
67517;BME280;68821;59.134;37.894;2023-05-12T05:21:59;100593.34;;;16.69;37.00
67517;BME280;68821;59.134;37.894;2023-05-12T05:24:25;100588.13;;;16.76;36.43
67517;BME280;68821;59.134;37.894;2023-05-12T05:26:51;100579.44;;;16.81;36.56
67517;BME280;68821;59.134;37.894;2023-05-12T05:29:17;100585.47;;;16.89;36.17
67517;BME280;68821;59.134;37.894;2023-05-12T05:31:44;100579.41;;;16.89;36.69
67517;BME280;68821;59.134;37.894;2023-05-12T05:34:10;100577.66;;;16.91;36.59
67517;BME280;68821;59.134;37.894;2023-05-12T05:36:36;100582.84;;;16.94;37.15
67517;BME280;68821;59.134;37.894;2023-05-12T05:39:03;100577.66;;;16.94;36.42
67517;BME280;68821;59.134;37.894;2023-05-12T05:41:29;100575.03;;;16.99;36.20
67517;BME280;68821;59.134;37.894;2023-05-12T05:43:55;100581.88;;;17.07;35.91
67517;BME280;68821;59.134;37.894;2023-05-12T05:46:22;100571.47;;;17.14;35.52
67517;BME280;68821;59.134;37.894;2023-05-12T05:48:48;100569.69;;;17.19;35.41
67517;BME280;68821;59.134;37.894;2023-05-12T05:51:14;100576.53;;;17.32;35.48
67517;BME280;68821;59.134;37.894;2023-05-12T05:53:40;100576.47;;;17.38;34.66
67517;BME280;68821;59.134;37.894;2023-05-12T05:56:06;100568.63;;;17.44;34.87
67517;BME280;68821;59.134;37.894;2023-05-12T05:58:33;100565.13;;;17.50;35.05
67517;BME280;68821;59.134;37.894;2023-05-12T06:00:59;100570.25;;;17.58;34.86
67517;BME280;68821;59.134;37.894;2023-05-12T06:03:25;100577.97;;;17.67;34.61
67517;BME280;68821;59.134;37.894;2023-05-12T06:05:52;100570.09;;;17.75;34.62
67517;BME280;68821;59.134;37.894;2023-05-12T06:08:18;100576.09;;;17.81;34.40
67517;BME280;68821;59.134;37.894;2023-05-12T06:10:44;100570.88;;;17.87;34.20
67517;BME280;68821;59.134;37.894;2023-05-12T06:13:14;100576.84;;;17.96;34.30
67517;BME280;68821;59.134;37.894;2023-05-12T06:15:40;100586.34;;;18.00;33.94
67517;BME280;68821;59.134;37.894;2023-05-12T06:18:07;100578.56;;;17.98;33.88
67517;BME280;68821;59.134;37.894;2023-05-12T06:20:33;100575.06;;;18.01;33.97
67517;BME280;68821;59.134;37.894;2023-05-12T06:22:59;100572.44;;;18.04;33.93
67517;BME280;68821;59.134;37.894;2023-05-12T06:25:25;100568.97;;;18.03;33.89
67517;BME280;68821;59.134;37.894;2023-05-12T06:27:51;100571.56;;;18.05;33.65
67517;BME280;68821;59.134;37.894;2023-05-12T06:30:17;100578.53;;;18.03;33.70
67517;BME280;68821;59.134;37.894;2023-05-12T06:32:43;100576.78;;;18.00;33.23
67517;BME280;68821;59.134;37.894;2023-05-12T06:35:09;100569.81;;;18.04;33.38
67517;BME280;68821;59.134;37.894;2023-05-12T06:37:36;100579.31;;;18.08;33.44
67517;BME280;68821;59.134;37.894;2023-05-12T06:40:03;100573.19;;;18.12;33.37
67517;BME280;68821;59.134;37.894;2023-05-12T06:42:29;100575.78;;;18.15;33.11
67517;BME280;68821;59.134;37.894;2023-05-12T06:44:55;100565.34;;;18.17;33.26
67517;BME280;68821;59.134;37.894;2023-05-12T06:47:21;100568.75;;;18.22;33.40
67517;BME280;68821;59.134;37.894;2023-05-12T06:49:47;100573.00;;;18.29;33.40
67517;BME280;68821;59.134;37.894;2023-05-12T06:52:14;100568.56;;;18.39;33.52
67517;BME280;68821;59.134;37.894;2023-05-12T06:54:41;100564.09;;;18.48;33.32
67517;BME280;68821;59.134;37.894;2023-05-12T06:57:06;100556.22;;;18.53;33.22
67517;BME280;68821;59.134;37.894;2023-05-12T06:59:32;100553.59;;;18.56;33.43
67517;BME280;68821;59.134;37.894;2023-05-12T07:01:59;100557.84;;;18.62;33.31
67517;BME280;68821;59.134;37.894;2023-05-12T07:04:25;100556.06;;;18.65;33.26
67517;BME280;68821;59.134;37.894;2023-05-12T07:06:51;100548.25;;;18.67;33.21
67517;BME280;68821;59.134;37.894;2023-05-12T07:09:17;100555.97;;;18.73;32.98
67517;BME280;68821;59.134;37.894;2023-05-12T07:11:43;100557.69;;;18.74;32.89
67517;BME280;68821;59.134;37.894;2023-05-12T07:14:09;100568.16;;;18.71;32.91
67517;BME280;68821;59.134;37.894;2023-05-12T07:16:35;100557.72;;;18.71;33.00
67517;BME280;68821;59.134;37.894;2023-05-12T07:19:01;100555.13;;;18.73;32.97
67517;BME280;68821;59.134;37.894;2023-05-12T07:21:27;100553.31;;;18.79;32.81
67517;BME280;68821;59.134;37.894;2023-05-12T07:23:57;100554.91;;;18.89;32.86
67517;BME280;68821;59.134;37.894;2023-05-12T07:26:23;100552.16;;;18.99;32.67
67517;BME280;68821;59.134;37.894;2023-05-12T07:28:49;100545.06;;;19.07;32.63
67517;BME280;68821;59.134;37.894;2023-05-12T07:31:15;100548.41;;;19.15;32.74
67517;BME280;68821;59.134;37.894;2023-05-12T07:33:41;100548.28;;;19.24;32.41
67517;BME280;68821;59.134;37.894;2023-05-12T07:36:07;100549.03;;;19.33;32.39
67517;BME280;68821;59.134;37.894;2023-05-12T07:38:34;100541.00;;;19.43;31.85
67517;BME280;68821;59.134;37.894;2023-05-12T07:41:00;100548.81;;;19.46;31.75
67517;BME280;68821;59.134;37.894;2023-05-12T07:43:26;100543.50;;;19.49;31.58
67517;BME280;68821;59.134;37.894;2023-05-12T07:45:52;100528.69;;;19.52;31.66
67517;BME280;68821;59.134;37.894;2023-05-12T07:48:19;100529.50;;;19.55;31.94
67517;BME280;68821;59.134;37.894;2023-05-12T07:50:45;100532.75;;;19.68;31.37
67517;BME280;68821;59.134;37.894;2023-05-12T07:53:11;100531.84;;;19.72;31.23
67517;BME280;68821;59.134;37.894;2023-05-12T07:55:37;100537.91;;;19.73;31.02
67517;BME280;68821;59.134;37.894;2023-05-12T07:58:03;100538.75;;;19.75;31.03
67517;BME280;68821;59.134;37.894;2023-05-12T08:00:29;100536.97;;;19.77;30.72
67517;BME280;68821;59.134;37.894;2023-05-12T08:02:55;100530.81;;;19.81;30.72
67517;BME280;68821;59.134;37.894;2023-05-12T08:05:21;100525.47;;;19.87;30.55
67517;BME280;68821;59.134;37.894;2023-05-12T08:07:47;100527.19;;;19.89;30.52
67517;BME280;68821;59.134;37.894;2023-05-12T08:10:13;100527.97;;;19.93;30.60
67517;BME280;68821;59.134;37.894;2023-05-12T08:12:39;100524.41;;;19.97;30.40
67517;BME280;68821;59.134;37.894;2023-05-12T08:15:07;100520.81;;;20.03;30.41
67517;BME280;68821;59.134;37.894;2023-05-12T08:17:33;100509.31;;;20.12;30.07
67517;BME280;68821;59.134;37.894;2023-05-12T08:20:00;100514.47;;;20.16;29.99
67517;BME280;68821;59.134;37.894;2023-05-12T08:22:29;100507.41;;;20.21;30.02
67517;BME280;68821;59.134;37.894;2023-05-12T08:24:55;100520.28;;;20.29;29.92
67517;BME280;68821;59.134;37.894;2023-05-12T08:27:21;100504.41;;;20.40;29.11
67517;BME280;68821;59.134;37.894;2023-05-12T08:29:47;100517.28;;;20.49;29.81
67517;BME280;68821;59.134;37.894;2023-05-12T08:32:13;100514.44;;;20.60;29.40
67517;BME280;68821;59.134;37.894;2023-05-12T08:34:39;100498.78;;;20.60;29.10
67517;BME280;68821;59.134;37.894;2023-05-12T08:37:05;100510.06;;;20.60;28.98
67517;BME280;68821;59.134;37.894;2023-05-12T08:39:31;100508.25;;;20.64;28.71
67517;BME280;68821;59.134;37.894;2023-05-12T08:44:38;100503.69;;;20.74;28.44
67517;BME280;68821;59.134;37.894;2023-05-12T08:47:05;100500.06;;;20.79;28.36
67517;BME280;68821;59.134;37.894;2023-05-12T08:49:34;100497.41;;;20.81;28.32
67517;BME280;68821;59.134;37.894;2023-05-12T08:52:01;100498.22;;;20.83;28.12
67517;BME280;68821;59.134;37.894;2023-05-12T08:54:28;100500.81;;;20.84;28.33
67517;BME280;68821;59.134;37.894;2023-05-12T08:56:55;100504.97;;;20.93;27.61
67517;BME280;68821;59.134;37.894;2023-05-12T08:59:22;100492.72;;;20.95;27.32
67517;BME280;68821;59.134;37.894;2023-05-12T09:01:49;100484.81;;;20.98;27.29
67517;BME280;68821;59.134;37.894;2023-05-12T09:04:16;100499.47;;;21.04;27.12
67517;BME280;68821;59.134;37.894;2023-05-12T09:06:43;100489.81;;;21.06;26.64
67517;BME280;68821;59.134;37.894;2023-05-12T09:09:12;100483.59;;;21.12;27.25
67517;BME280;68821;59.134;37.894;2023-05-12T09:11:40;100485.13;;;21.20;27.45
67517;BME280;68821;59.134;37.894;2023-05-12T09:14:09;100485.09;;;21.22;26.93
67517;BME280;68821;59.134;37.894;2023-05-12T09:16:42;100474.66;;;21.20;26.85
67517;BME280;68821;59.134;37.894;2023-05-12T09:19:09;100470.22;;;21.24;27.00
67517;BME280;68821;59.134;37.894;2023-05-12T09:21:35;100474.28;;;21.36;27.15
67517;BME280;68821;59.134;37.894;2023-05-12T09:24:04;100480.97;;;21.47;26.83
67517;BME280;68821;59.134;37.894;2023-05-12T09:26:53;100469.53;;;21.52;26.94
67517;BME280;68821;59.134;37.894;2023-05-12T09:29:19;100472.03;;;21.56;26.57
67517;BME280;68821;59.134;37.894;2023-05-12T09:31:49;100470.13;;;21.61;27.05
67517;BME280;68821;59.134;37.894;2023-05-12T09:34:16;100457.69;;;21.69;26.42
67517;BME280;68821;59.134;37.894;2023-05-12T09:36:42;100467.75;;;21.85;26.34
67517;BME280;68821;59.134;37.894;2023-05-12T09:39:10;100455.06;;;22.01;25.89
67517;BME280;68821;59.134;37.894;2023-05-12T09:41:39;100458.16;;;22.15;26.35
67517;BME280;68821;59.134;37.894;2023-05-12T09:44:06;100462.09;;;22.30;26.30
67517;BME280;68821;59.134;37.894;2023-05-12T09:46:33;100465.19;;;22.43;25.92
67517;BME280;68821;59.134;37.894;2023-05-12T09:48:59;100478.66;;;22.59;25.88
67517;BME280;68821;59.134;37.894;2023-05-12T09:51:27;100460.09;;;22.66;25.85
67517;BME280;68821;59.134;37.894;2023-05-12T09:53:53;100447.41;;;22.81;25.76
67517;BME280;68821;59.134;37.894;2023-05-12T09:56:19;100463.28;;;23.03;25.63
67517;BME280;68821;59.134;37.894;2023-05-12T09:58:47;100459.63;;;23.08;25.10
67517;BME280;68821;59.134;37.894;2023-05-12T10:01:16;100449.50;;;23.23;25.02
67517;BME280;68821;59.134;37.894;2023-05-12T10:03:48;100439.97;;;23.45;25.00
67517;BME280;68821;59.134;37.894;2023-05-12T10:06:21;100454.59;;;23.78;25.01
67517;BME280;68821;59.134;37.894;2023-05-12T10:09:10;100436.75;;;24.09;24.76
67517;BME280;68821;59.134;37.894;2023-05-12T10:11:40;100442.75;;;24.37;24.56
67517;BME280;68821;59.134;37.894;2023-05-12T10:14:07;100446.41;;;24.55;24.31
67517;BME280;68821;59.134;37.894;2023-05-12T10:16:34;100456.84;;;24.58;23.91
67517;BME280;68821;59.134;37.894;2023-05-12T10:19:04;100445.47;;;24.57;23.54
67517;BME280;68821;59.134;37.894;2023-05-12T10:21:35;100432.97;;;24.62;23.50
67517;BME280;68821;59.134;37.894;2023-05-12T10:24:02;100442.00;;;24.77;23.54
67517;BME280;68821;59.134;37.894;2023-05-12T10:26:31;100425.47;;;24.96;23.31
67517;BME280;68821;59.134;37.894;2023-05-12T10:28:57;100432.66;;;25.13;22.94
67517;BME280;68821;59.134;37.894;2023-05-12T10:31:24;100433.34;;;25.16;22.62
67517;BME280;68821;59.134;37.894;2023-05-12T10:33:58;100426.13;;;25.23;22.76
67517;BME280;68821;59.134;37.894;2023-05-12T10:36:24;100430.97;;;25.32;22.46
67517;BME280;68821;59.134;37.894;2023-05-12T10:38:51;100427.16;;;25.39;22.49
67517;BME280;68821;59.134;37.894;2023-05-12T10:41:38;100426.53;;;25.53;23.04
67517;BME280;68821;59.134;37.894;2023-05-12T10:44:03;100426.41;;;25.75;22.36
67517;BME280;68821;59.134;37.894;2023-05-12T10:46:29;100427.47;;;25.92;22.04
67517;BME280;68821;59.134;37.894;2023-05-12T10:51:26;100419.34;;;26.88;20.87
67517;BME280;68821;59.134;37.894;2023-05-12T10:54:19;100410.66;;;28.51;20.42
67517;BME280;68821;59.134;37.894;2023-05-12T10:56:46;100408.31;;;30.62;18.88
67517;BME280;68821;59.134;37.894;2023-05-12T11:01:39;100410.03;;;34.02;17.32
67517;BME280;68821;59.134;37.894;2023-05-12T11:04:13;100407.94;;;35.54;16.61
67517;BME280;68821;59.134;37.894;2023-05-12T11:06:41;100419.84;;;36.99;15.84
67517;BME280;68821;59.134;37.894;2023-05-12T11:09:08;100409.78;;;37.68;15.13
67517;BME280;68821;59.134;37.894;2023-05-12T11:11:36;100410.41;;;38.43;14.58
67517;BME280;68821;59.134;37.894;2023-05-12T11:14:02;100421.38;;;39.81;14.10
67517;BME280;68821;59.134;37.894;2023-05-12T11:16:28;100412.31;;;41.54;13.11
67517;BME280;68821;59.134;37.894;2023-05-12T11:19:04;100420.31;;;42.94;12.49
67517;BME280;68821;59.134;37.894;2023-05-12T11:21:31;100405.97;;;43.09;12.27
67517;BME280;68821;59.134;37.894;2023-05-12T11:24:00;100402.81;;;43.20;11.82
67517;BME280;68821;59.134;37.894;2023-05-12T11:26:27;100402.44;;;43.53;11.38
67517;BME280;68821;59.134;37.894;2023-05-12T11:28:53;100407.72;;;44.12;10.66
67517;BME280;68821;59.134;37.894;2023-05-12T11:31:21;100400.88;;;44.16;10.76
67517;BME280;68821;59.134;37.894;2023-05-12T11:33:47;100396.81;;;44.27;10.81
67517;BME280;68821;59.134;37.894;2023-05-12T11:36:15;100396.63;;;44.50;10.72
67517;BME280;68821;59.134;37.894;2023-05-12T11:38:50;100391.38;;;45.05;10.50
67517;BME280;68821;59.134;37.894;2023-05-12T11:41:25;100389.50;;;45.47;9.94
67517;BME280;68821;59.134;37.894;2023-05-12T11:43:51;100395.91;;;45.74;10.19
67517;BME280;68821;59.134;37.894;2023-05-12T11:46:27;100385.19;;;45.25;9.62
67517;BME280;68821;59.134;37.894;2023-05-12T11:48:57;100384.97;;;44.85;9.51
67517;BME280;68821;59.134;37.894;2023-05-12T11:51:24;100383.66;;;44.74;9.58
67517;BME280;68821;59.134;37.894;2023-05-12T11:53:52;100382.47;;;44.12;9.71
67517;BME280;68821;59.134;37.894;2023-05-12T11:56:22;100386.50;;;43.28;10.27
67517;BME280;68821;59.134;37.894;2023-05-12T11:58:56;100378.75;;;42.95;10.07
67517;BME280;68821;59.134;37.894;2023-05-12T12:01:23;100374.81;;;43.13;10.28
67517;BME280;68821;59.134;37.894;2023-05-12T12:03:51;100374.41;;;43.46;10.21
67517;BME280;68821;59.134;37.894;2023-05-12T12:06:19;100374.16;;;43.40;9.84
67517;BME280;68821;59.134;37.894;2023-05-12T12:08:58;100371.06;;;43.44;10.11
67517;BME280;68821;59.134;37.894;2023-05-12T12:11:27;100378.41;;;43.79;9.98
67517;BME280;68821;59.134;37.894;2023-05-12T12:13:55;100373.31;;;43.10;9.98
67517;BME280;68821;59.134;37.894;2023-05-12T12:16:25;100368.28;;;43.22;10.05
67517;BME280;68821;59.134;37.894;2023-05-12T12:18:52;100370.97;;;43.88;9.99
67517;BME280;68821;59.134;37.894;2023-05-12T12:21:19;100380.25;;;44.00;9.61
67517;BME280;68821;59.134;37.894;2023-05-12T12:23:47;100362.34;;;43.63;9.66
67517;BME280;68821;59.134;37.894;2023-05-12T12:26:13;100360.09;;;43.30;10.05
67517;BME280;68821;59.134;37.894;2023-05-12T12:28:47;100360.53;;;43.49;9.86
67517;BME280;68821;59.134;37.894;2023-05-12T12:31:15;100359.34;;;43.36;9.74
67517;BME280;68821;59.134;37.894;2023-05-12T12:33:41;100359.31;;;43.07;10.04
67517;BME280;68821;59.134;37.894;2023-05-12T12:36:07;100357.09;;;42.19;10.30
67517;BME280;68821;59.134;37.894;2023-05-12T12:38:33;100356.72;;;41.29;10.59
67517;BME280;68821;59.134;37.894;2023-05-12T12:40:59;100351.78;;;40.93;11.24
67517;BME280;68821;59.134;37.894;2023-05-12T12:43:25;100348.22;;;41.17;10.97
67517;BME280;68821;59.134;37.894;2023-05-12T12:45:51;100359.53;;;41.83;10.61
67517;BME280;68821;59.134;37.894;2023-05-12T12:48:19;100339.22;;;42.56;10.65
67517;BME280;68821;59.134;37.894;2023-05-12T12:50:45;100345.16;;;43.34;10.34